Time;durP1;ratioP1;P1;durP2;ratioP2;P2;SDS_P1;SDS_P2;PMS_P1;PMS_P2;Temp;Humidity;BMP_temperature;BMP_pressure;BME280_temperature;BME280_humidity;BME280_pressure;Samples;Min_cycle;Max_cycle;Signal;HPM_P1;HPM_P2
2023/08/28 00:00:37;;;;;;;;;;;;;;;;;;5111461;28;19908;-72
2023/08/28 00:03:03;;;;;;;;;;;;;;;;;;5110964;28;19908;-71
2023/08/28 00:09:45;;;;;;;;;;;;;;;;;;5173556;27;19919;-70
2023/08/28 00:12:11;;;;;;;;;;;;;;;;;;5154887;27;19976;-70
2023/08/28 00:14:37;;;;;;;;;;;;;;;;;;5173480;27;19964;-71
2023/08/28 00:18:27;;;;;;;;;;;;;;;;;;5112033;27;19912;-71
2023/08/28 00:20:53;;;;;;;;;;;;;;;;;;5111575;28;20010;-70
2023/08/28 00:23:19;;;;;;;;;;;;;;;;;;5110004;28;20347;-71
2023/08/28 00:25:45;;;;;;;;;;;;;;;;;;5110148;28;20010;-71
2023/08/28 00:28:11;;;;;;;;;;;;;;;;;;5111567;28;19908;-71
2023/08/28 00:30:37;;;;;;;;;;;;;;;;;;5110983;28;19908;-70
2023/08/28 00:35:33;;;;;;;;;;;;;;;;;;5111905;27;19922;-71
2023/08/28 00:37:58;;;;;;;;;;;;;;;;;;5111148;28;20010;-71
2023/08/28 00:43:25;;;;;;;;;;;;;;;;;;5112382;27;19923;-72
2023/08/28 00:47:51;;;;;;;;;;;;;;;;;;5111873;27;20295;-71
2023/08/28 00:50:17;;;;;;;;;;;;;;;;;;5111907;28;20007;-71
2023/08/28 00:52:43;;;;;;;;;;;;;;;;;;5111117;28;20367;-71
2023/08/28 00:55:09;;;;;;;;;;;;;;;;;;5111557;28;19908;-71
2023/08/28 00:57:35;;;;;;;;;;;;;;;;;;5111400;28;19953;-71
2023/08/28 01:00:01;;;;;;;;;;;;;;;;;;5111030;28;19918;-71
2023/08/28 01:04:42;;;;;;;;;;;;;;;;;;5091849;27;19916;-71
2023/08/28 01:07:37;;;;;;;;;;;;;;;;;;5112255;27;19927;-70
2023/08/28 01:10:03;;;;;;;;;;;;;;;;;;5111577;28;19916;-70
2023/08/28 01:12:29;;;;;;;;;;;;;;;;;;5109793;28;19961;-71
2023/08/28 01:17:31;;;;;;;;;;;;;;;;;;5091752;27;19923;-70
2023/08/28 01:19:57;;;;;;;;;;;;;;;;;;5090827;28;20010;-71
2023/08/28 01:22:23;;;;;;;;;;;;;;;;;;5089901;28;19966;-71
2023/08/28 01:24:49;;;;;;;;;;;;;;;;;;5091212;28;19908;-71
2023/08/28 01:27:15;;;;;;;;;;;;;;;;;;5090876;28;20340;-71
2023/08/28 01:29:40;;;;;;;;;;;;;;;;;;5091071;28;20395;-71
2023/08/28 01:32:06;;;;;;;;;;;;;;;;;;5089649;28;20261;-71
2023/08/28 01:38:04;;;;;;;;;;;;;;;;;;5112113;27;19916;-71
2023/08/28 01:40:30;;;;;;;;;;;;;;;;;;5111153;28;20003;-71
2023/08/28 01:43:19;;;;;;;;;;;;;;;;;;5091548;27;19923;-71
2023/08/28 01:46:01;;;;;;;;;;;;;;;;;;5174249;27;19911;-71
2023/08/28 01:49:54;;;;;;;;;;;;;;;;;;5091192;28;20380;-71
2023/08/28 01:52:20;;;;;;;;;;;;;;;;;;5091232;28;19940;-71
2023/08/28 01:54:46;;;;;;;;;;;;;;;;;;5090822;28;19998;-71
2023/08/28 01:57:43;;;;;;;;;;;;;;;;;;5111740;27;19923;-72
2023/08/28 02:04:08;;;;;;;;;;;;;;;;;;5112463;27;20371;-72
2023/08/28 02:06:34;;;;;;;;;;;;;;;;;;5111691;28;19995;-72
2023/08/28 02:11:00;;;;;;;;;;;;;;;;;;5112222;27;19916;-70
2023/08/28 02:15:26;;;;;;;;;;;;;;;;;;5111319;27;19922;-71
2023/08/28 02:18:28;;;;;;;;;;;;;;;;;;5091419;27;19917;-71
2023/08/28 02:29:58;;;;;;;;;;;;;;;;;;5091236;27;19922;-70
2023/08/28 02:32:23;;;;;;;;;;;;;;;;;;5091151;28;19999;-71
2023/08/28 02:34:50;;;;;;;;;;;;;;;;;;5091160;28;19908;-71
2023/08/28 02:38:49;;;;;;;;;;;;;;;;;;5111926;27;19922;-71
2023/08/28 02:42:51;;;;;;;;;;;;;;;;;;5112065;27;19912;-71
2023/08/28 02:48:36;;;;;;;;;;;;;;;;;;5111763;27;19916;-71
2023/08/28 02:52:05;;;;;;;;;;;;;;;;;;5111448;27;19919;-71
2023/08/28 02:54:31;;;;;;;;;;;;;;;;;;5111563;28;20010;-70
2023/08/28 02:57:53;;;;;;;;;;;;;;;;;;5111543;27;19938;-70
2023/08/28 03:00:19;;;;;;;;;;;;;;;;;;5111623;28;20438;-71
2023/08/28 03:02:45;;;;;;;;;;;;;;;;;;5111566;28;19912;-71
2023/08/28 03:07:31;;;;;;;;;;;;;;;;;;5091866;27;19953;-71
2023/08/28 03:10:45;;;;;;;;;;;;;;;;;;5112077;27;20466;-71
2023/08/28 03:14:31;;;;;;;;;;;;;;;;;;5112130;27;20277;-71
2023/08/28 03:16:57;;;;;;;;;;;;;;;;;;5111635;28;19918;-72
2023/08/28 03:20:42;;;;;;;;;;;;;;;;;;5111270;27;20291;-71
2023/08/28 03:23:09;;;;;;;;;;;;;;;;;;5111889;28;19912;-71
2023/08/28 03:25:35;;;;;;;;;;;;;;;;;;5111149;28;19908;-71
2023/08/28 03:28:02;;;;;;;;;;;;;;;;;;5111503;28;19912;-71
2023/08/28 03:30:28;;;;;;;;;;;;;;;;;;5111430;28;19915;-71
2023/08/28 03:33:27;;;;;;;;;;;;;;;;;;5070821;28;20373;-71
2023/08/28 03:36:12;;;;;;;;;;;;;;;;;;5111929;27;19916;-71
2023/08/28 03:40:30;;;;;;;;;;;;;;;;;;5111648;27;19912;-71
2023/08/28 03:43:38;;;;;;;;;;;;;;;;;;5174342;27;20007;-71
2023/08/28 03:46:04;;;;;;;;;;;;;;;;;;5173685;27;19919;-71
2023/08/28 03:51:27;;;;;;;;;;;;;;;;;;5111793;27;19916;-71
2023/08/28 03:53:53;;;;;;;;;;;;;;;;;;5111192;28;20007;-71
2023/08/28 03:56:19;;;;;;;;;;;;;;;;;;5111467;28;19908;-70
2023/08/28 03:58:45;;;;;;;;;;;;;;;;;;5111440;28;19908;-71
2023/08/28 04:02:03;;;;;;;;;;;;;;;;;;5111621;27;19916;-71
2023/08/28 04:06:49;;;;;;;;;;;;;;;;;;5091316;27;19913;-71
2023/08/28 04:09:15;;;;;;;;;;;;;;;;;;5089486;28;20007;-71
2023/08/28 04:14:13;;;;;;;;;;;;;;;;;;5112272;27;19916;-71
2023/08/28 04:18:16;;;;;;;;;;;;;;;;;;5111937;27;19916;-71
2023/08/28 04:22:14;;;;;;;;;;;;;;;;;;5111914;27;20295;-71
2023/08/28 04:28:41;;;;;;;;;;;;;;;;;;5153353;27;20006;-71
2023/08/28 04:31:07;;;;;;;;;;;;;;;;;;5133854;27;19954;-71
2023/08/28 04:33:33;;;;;;;;;;;;;;;;;;5152732;27;19907;-71
2023/08/28 04:35:59;;;;;;;;;;;;;;;;;;5152378;27;20103;-71
2023/08/28 04:40:20;;;;;;;;;;;;;;;;;;5092065;27;19923;-70
2023/08/28 04:43:43;;;;;;;;;;;;;;;;;;5152782;27;20006;-71
2023/08/28 04:46:09;;;;;;;;;;;;;;;;;;5152818;27;19954;-70
2023/08/28 04:53:02;;;;;;;;;;;;;;;;;;5092013;27;19923;-70
2023/08/28 04:57:13;;;;;;;;;;;;;;;;;;5111387;27;19916;-70
2023/08/28 04:59:39;;;;;;;;;;;;;;;;;;5111630;28;20026;-71
2023/08/28 05:02:05;;;;;;;;;;;;;;;;;;5112813;28;19953;-71
2023/08/28 05:04:31;;;;;;;;;;;;;;;;;;5111220;28;19934;-72
2023/08/28 05:09:05;;;;;;;;;;;;;;;;;;5112019;27;20380;-71
2023/08/28 05:13:28;;;;;;;;;;;;;;;;;;5154477;27;19912;-70
2023/08/28 05:15:54;;;;;;;;;;;;;;;;;;5153383;27;19988;-71
2023/08/28 05:18:30;;;;;;;;;;;;;;;;;;5091059;27;19916;-70
2023/08/28 05:23:24;;;;;;;;;;;;;;;;;;5091935;27;19938;-70
2023/08/28 05:25:50;;;;;;;;;;;;;;;;;;5091261;28;20399;-71
2023/08/28 05:32:30;;;;;;;;;;;;;;;;;;5071325;28;19923;-73
2023/08/28 05:34:58;;;;;;;;;;;;;;;;;;5071097;28;19912;-71
2023/08/28 05:37:32;;;;;;;;;;;;;;;;;;5111878;27;19916;-72
2023/08/28 05:39:58;;;;;;;;;;;;;;;;;;5111316;28;19918;-71
2023/08/28 05:42:24;;;;;;;;;;;;;;;;;;5111603;28;19953;-71
2023/08/28 05:45:52;;;;;;;;;;;;;;;;;;5152958;27;20430;-71
2023/08/28 05:48:43;;;;;;;;;;;;;;;;;;5091411;28;19923;-71
2023/08/28 05:51:09;;;;;;;;;;;;;;;;;;5089843;28;20006;-71
2023/08/28 05:53:34;;;;;;;;;;;;;;;;;;5091169;28;20322;-70
2023/08/28 05:56:00;;;;;;;;;;;;;;;;;;5091173;28;19908;-71
2023/08/28 05:58:26;;;;;;;;;;;;;;;;;;5091001;28;20003;-70
2023/08/28 06:00:53;;;;;;;;;;;;;;;;;;5090778;28;19912;-71
2023/08/28 06:03:19;;;;;;;;;;;;;;;;;;5091255;28;20419;-70
2023/08/28 06:05:45;;;;;;;;;;;;;;;;;;5091069;28;19955;-70
2023/08/28 06:08:11;;;;;;;;;;;;;;;;;;5090521;28;19923;-71
2023/08/28 06:10:40;;;;;;;;;;;;;;;;;;5089598;28;19909;-71
2023/08/28 06:13:06;;;;;;;;;;;;;;;;;;5089485;28;19962;-71
2023/08/28 06:17:42;;;;;;;;;;;;;;;;;;5112148;27;19938;-70
2023/08/28 06:21:53;;;;;;;;;;;;;;;;;;5091458;28;19931;-71
2023/08/28 06:24:19;;;;;;;;;;;;;;;;;;5091199;28;20373;-71
2023/08/28 06:28:20;;;;;;;;;;;;;;;;;;5071018;28;19917;-71
2023/08/28 06:32:49;;;;;;;;;;;;;;;;;;5111934;27;19918;-71
2023/08/28 06:35:15;;;;;;;;;;;;;;;;;;5111561;28;20002;-71
2023/08/28 06:38:51;;;;;;;;;;;;;;;;;;5111785;27;20384;-71
2023/08/28 06:41:17;;;;;;;;;;;;;;;;;;5111645;28;19912;-71
2023/08/28 06:44:24;;;;;;;;;;;;;;;;;;5090914;27;19916;-71
2023/08/28 06:46:50;;;;;;;;;;;;;;;;;;5091107;28;19952;-71
2023/08/28 06:49:45;;;;;;;;;;;;;;;;;;5111751;27;19916;-72
2023/08/28 06:54:02;;;;;;;;;;;;;;;;;;5091635;27;19917;-71
2023/08/28 06:56:54;;;;;;;;;;;;;;;;;;5091160;27;19917;-71
2023/08/28 06:59:20;;;;;;;;;;;;;;;;;;5091268;28;19912;-71
2023/08/28 07:01:46;;;;;;;;;;;;;;;;;;5091120;28;19916;-73
2023/08/28 07:04:12;;;;;;;;;;;;;;;;;;5090948;28;19909;-70
2023/08/28 07:08:24;;;;;;;;;;;;;;;;;;5112094;27;19916;-71
2023/08/28 07:10:50;;;;;;;;;;;;;;;;;;5112084;28;20086;-71
2023/08/28 07:13:16;;;;;;;;;;;;;;;;;;5111440;28;20023;-70
2023/08/28 07:15:42;;;;;;;;;;;;;;;;;;5111697;28;20391;-71
2023/08/28 07:18:08;;;;;;;;;;;;;;;;;;5111068;28;19916;-71
2023/08/28 07:20:34;;;;;;;;;;;;;;;;;;5111313;28;19911;-71
2023/08/28 07:23:00;;;;;;;;;;;;;;;;;;5111319;28;19908;-70
2023/08/28 07:25:27;;;;;;;;;;;;;;;;;;5110879;28;20386;-70
2023/08/28 07:30:22;;;;;;;;;;;;;;;;;;5091423;27;19916;-71
2023/08/28 07:32:48;;;;;;;;;;;;;;;;;;5089135;28;20368;-71
2023/08/28 07:35:14;;;;;;;;;;;;;;;;;;5091220;28;19909;-71
2023/08/28 07:37:40;;;;;;;;;;;;;;;;;;5091193;28;19908;-71
2023/08/28 07:40:06;;;;;;;;;;;;;;;;;;5090710;28;19916;-71
2023/08/28 07:42:32;;;;;;;;;;;;;;;;;;5091046;28;20269;-71
2023/08/28 07:44:58;;;;;;;;;;;;;;;;;;5091088;28;20398;-72
2023/08/28 07:47:24;;;;;;;;;;;;;;;;;;5089114;28;20006;-71
2023/08/28 07:49:50;;;;;;;;;;;;;;;;;;5090894;28;19923;-71
2023/08/28 07:52:16;;;;;;;;;;;;;;;;;;5089424;28;19909;-71
2023/08/28 07:54:42;;;;;;;;;;;;;;;;;;5090378;28;19912;-71
2023/08/28 07:57:08;;;;;;;;;;;;;;;;;;5090655;28;19908;-71
2023/08/28 07:59:34;;;;;;;;;;;;;;;;;;5090689;28;19909;-71
2023/08/28 08:02:00;;;;;;;;;;;;;;;;;;5090281;28;20403;-72
2023/08/28 08:04:26;;;;;;;;;;;;;;;;;;5090576;28;19932;-71
2023/08/28 08:06:52;;;;;;;;;;;;;;;;;;5090083;28;19916;-71
2023/08/28 08:09:18;;;;;;;;;;;;;;;;;;5090699;28;19920;-71
2023/08/28 08:11:44;;;;;;;;;;;;;;;;;;5090235;28;19952;-71
2023/08/28 08:14:10;;;;;;;;;;;;;;;;;;5090220;28;19929;-72
2023/08/28 08:16:36;;;;;;;;;;;;;;;;;;5090362;28;20356;-71
2023/08/28 08:19:41;;;;;;;;;;;;;;;;;;5070994;28;19923;-72
2023/08/28 08:22:07;;;;;;;;;;;;;;;;;;5070746;28;19912;-71
2023/08/28 08:24:32;;;;;;;;;;;;;;;;;;5070963;28;19999;-71
2023/08/28 08:26:58;;;;;;;;;;;;;;;;;;5071327;28;20001;-72
2023/08/28 08:29:24;;;;;;;;;;;;;;;;;;5070283;28;19920;-71
2023/08/28 08:31:53;;;;;;;;;;;;;;;;;;5070681;28;19912;-70
2023/08/28 08:34:19;;;;;;;;;;;;;;;;;;5070621;28;20306;-70
2023/08/28 08:36:45;;;;;;;;;;;;;;;;;;5070272;28;19955;-72
2023/08/28 08:39:11;;;;;;;;;;;;;;;;;;5070828;28;19921;-72
2023/08/28 08:41:37;;;;;;;;;;;;;;;;;;5069285;28;19999;-73
2023/08/28 08:44:03;;;;;;;;;;;;;;;;;;5070196;28;19909;-73
2023/08/28 08:46:29;;;;;;;;;;;;;;;;;;5070625;28;19953;-72
2023/08/28 08:48:55;;;;;;;;;;;;;;;;;;5070422;28;19909;-72
2023/08/28 08:51:21;;;;;;;;;;;;;;;;;;5070130;28;19917;-73
2023/08/28 08:53:47;;;;;;;;;;;;;;;;;;5070681;28;19908;-72
2023/08/28 08:56:13;;;;;;;;;;;;;;;;;;5070209;28;19908;-72
2023/08/28 08:58:39;;;;;;;;;;;;;;;;;;5070213;28;20020;-72
2023/08/28 09:01:06;;;;;;;;;;;;;;;;;;5070267;28;20000;-72
2023/08/28 09:03:32;;;;;;;;;;;;;;;;;;5069820;28;20384;-73
2023/08/28 09:05:59;;;;;;;;;;;;;;;;;;5070236;28;19909;-73
2023/08/28 09:08:25;;;;;;;;;;;;;;;;;;5070135;28;19908;-72
2023/08/28 09:10:51;;;;;;;;;;;;;;;;;;5069638;28;20003;-72
2023/08/28 09:13:17;;;;;;;;;;;;;;;;;;5068770;28;19908;-72
2023/08/28 09:15:43;;;;;;;;;;;;;;;;;;5069929;28;19915;-72
2023/08/28 09:18:09;;;;;;;;;;;;;;;;;;5069495;28;20292;-71
2023/08/28 09:20:35;;;;;;;;;;;;;;;;;;5069781;28;19915;-71
2023/08/28 09:23:00;;;;;;;;;;;;;;;;;;5069768;28;19908;-72
2023/08/28 09:25:26;;;;;;;;;;;;;;;;;;5069311;28;19909;-71
2023/08/28 09:27:52;;;;;;;;;;;;;;;;;;5069575;28;19999;-72
2023/08/28 09:30:18;;;;;;;;;;;;;;;;;;5060240;28;19909;-71
2023/08/28 09:32:44;;;;;;;;;;;;;;;;;;5056045;28;19916;-72
2023/08/28 09:35:10;;;;;;;;;;;;;;;;;;5056449;28;19913;-71
2023/08/28 09:37:36;;;;;;;;;;;;;;;;;;5056977;28;20003;-71
2023/08/28 09:40:02;;;;;;;;;;;;;;;;;;5054623;28;19920;-71
2023/08/28 09:42:28;;;;;;;;;;;;;;;;;;5056280;28;19908;-71
2023/08/28 09:44:55;;;;;;;;;;;;;;;;;;5059484;28;19915;-72
2023/08/28 09:47:21;;;;;;;;;;;;;;;;;;5055855;28;19909;-72
2023/08/28 09:49:47;;;;;;;;;;;;;;;;;;5056113;28;19958;-72
2023/08/28 09:52:13;;;;;;;;;;;;;;;;;;5056018;28;20323;-72
2023/08/28 09:54:39;;;;;;;;;;;;;;;;;;5055555;28;19915;-72
2023/08/28 09:57:05;;;;;;;;;;;;;;;;;;5056132;28;20008;-72
2023/08/28 09:59:31;;;;;;;;;;;;;;;;;;5055437;28;19921;-72
2023/08/28 10:01:57;;;;;;;;;;;;;;;;;;5055942;28;19971;-72
2023/08/28 10:04:23;;;;;;;;;;;;;;;;;;5054478;28;19909;-72
2023/08/28 10:06:53;;;;;;;;;;;;;;;;;;5055746;28;20269;-72
2023/08/28 10:09:19;;;;;;;;;;;;;;;;;;5056154;28;19916;-72
2023/08/28 10:11:45;;;;;;;;;;;;;;;;;;5056171;28;19909;-72
2023/08/28 10:14:11;;;;;;;;;;;;;;;;;;5055763;28;20333;-72
2023/08/28 10:16:37;;;;;;;;;;;;;;;;;;5055832;28;19970;-72
2023/08/28 10:19:03;;;;;;;;;;;;;;;;;;5055613;28;19921;-72
2023/08/28 10:21:29;;;;;;;;;;;;;;;;;;5055148;28;19956;-72
2023/08/28 10:23:55;;;;;;;;;;;;;;;;;;5055872;28;19916;-72
2023/08/28 10:26:21;;;;;;;;;;;;;;;;;;5055497;28;19909;-72
2023/08/28 10:28:46;;;;;;;;;;;;;;;;;;5055295;28;20013;-72
2023/08/28 10:31:12;;;;;;;;;;;;;;;;;;5054171;28;19909;-72
2023/08/28 10:33:38;;;;;;;;;;;;;;;;;;5055352;28;19908;-72
2023/08/28 10:36:04;;;;;;;;;;;;;;;;;;5056421;28;19908;-71
2023/08/28 10:38:30;;;;;;;;;;;;;;;;;;5053772;28;20066;-71
2023/08/28 10:40:56;;;;;;;;;;;;;;;;;;5054459;28;19948;-72
2023/08/28 10:43:22;;;;;;;;;;;;;;;;;;5054820;28;19917;-72
2023/08/28 10:45:48;;;;;;;;;;;;;;;;;;5055309;28;19909;-72
2023/08/28 10:48:14;;;;;;;;;;;;;;;;;;5055000;28;20003;-72
2023/08/28 10:50:40;;;;;;;;;;;;;;;;;;5054563;28;20287;-71
2023/08/28 10:53:06;;;;;;;;;;;;;;;;;;5054914;28;20373;-71
2023/08/28 10:55:32;;;;;;;;;;;;;;;;;;5054946;28;19931;-71
2023/08/28 10:57:58;;;;;;;;;;;;;;;;;;5054430;28;19939;-71
2023/08/28 11:00:24;;;;;;;;;;;;;;;;;;5054734;28;19909;-71
2023/08/28 11:02:50;;;;;;;;;;;;;;;;;;5054450;28;19913;-72
2023/08/28 11:05:16;;;;;;;;;;;;;;;;;;5054770;28;19931;-72
2023/08/28 11:07:42;;;;;;;;;;;;;;;;;;5054727;28;19909;-71
2023/08/28 11:10:08;;;;;;;;;;;;;;;;;;5054243;28;19931;-71
2023/08/28 11:12:34;;;;;;;;;;;;;;;;;;5054554;28;19916;-73
2023/08/28 11:15:00;;;;;;;;;;;;;;;;;;5054529;28;19935;-71
2023/08/28 11:17:26;;;;;;;;;;;;;;;;;;5053999;28;19909;-71
2023/08/28 11:19:55;;;;;;;;;;;;;;;;;;5054443;28;19909;-71
2023/08/28 11:22:21;;;;;;;;;;;;;;;;;;5054377;28;19915;-71
2023/08/28 11:24:47;;;;;;;;;;;;;;;;;;5053912;28;20003;-71
2023/08/28 11:27:13;;;;;;;;;;;;;;;;;;5053007;28;19913;-71
2023/08/28 11:29:40;;;;;;;;;;;;;;;;;;5052950;28;19909;-72
2023/08/28 11:32:06;;;;;;;;;;;;;;;;;;5053753;28;19964;-72
2023/08/28 11:34:32;;;;;;;;;;;;;;;;;;5054125;28;19913;-72
2023/08/28 11:36:57;;;;;;;;;;;;;;;;;;5054104;28;20343;-72
2023/08/28 11:39:24;;;;;;;;;;;;;;;;;;5053604;28;20376;-72
2023/08/28 11:41:50;;;;;;;;;;;;;;;;;;5054350;28;19909;-72
2023/08/28 11:44:15;;;;;;;;;;;;;;;;;;5054011;28;19908;-72
2023/08/28 11:46:41;;;;;;;;;;;;;;;;;;5053688;28;19909;-72
2023/08/28 11:49:07;;;;;;;;;;;;;;;;;;5053951;28;19909;-72
2023/08/28 11:51:33;;;;;;;;;;;;;;;;;;5055946;28;19908;-71
2023/08/28 11:53:59;;;;;;;;;;;;;;;;;;5056055;28;19998;-72
2023/08/28 11:56:25;;;;;;;;;;;;;;;;;;5056428;28;19927;-71
2023/08/28 11:58:51;;;;;;;;;;;;;;;;;;5055013;28;19917;-71
2023/08/28 12:01:17;;;;;;;;;;;;;;;;;;5055501;28;20003;-70
2023/08/28 12:03:43;;;;;;;;;;;;;;;;;;5054516;28;19955;-71
2023/08/28 12:06:09;;;;;;;;;;;;;;;;;;5053368;28;19912;-71
2023/08/28 12:08:35;;;;;;;;;;;;;;;;;;5054332;28;19916;-71
2023/08/28 12:11:01;;;;;;;;;;;;;;;;;;5053719;28;19987;-70
2023/08/28 12:13:27;;;;;;;;;;;;;;;;;;5053356;28;20392;-71
2023/08/28 12:15:53;;;;;;;;;;;;;;;;;;5053602;28;20369;-72
2023/08/28 12:18:19;;;;;;;;;;;;;;;;;;5053265;28;19928;-71
2023/08/28 12:20:45;;;;;;;;;;;;;;;;;;5053275;28;19909;-71
2023/08/28 12:23:11;;;;;;;;;;;;;;;;;;5053591;28;19909;-71
2023/08/28 12:25:37;;;;;;;;;;;;;;;;;;5053520;28;19944;-71
2023/08/28 12:28:03;;;;;;;;;;;;;;;;;;5053039;28;19916;-71
2023/08/28 12:30:29;;;;;;;;;;;;;;;;;;5053441;28;19909;-71
2023/08/28 12:32:55;;;;;;;;;;;;;;;;;;5052130;28;19999;-71
2023/08/28 12:35:22;;;;;;;;;;;;;;;;;;5053202;28;19909;-72
2023/08/28 12:37:48;;;;;;;;;;;;;;;;;;5053275;28;19939;-71
2023/08/28 12:40:15;;;;;;;;;;;;;;;;;;5053670;28;20361;-71
2023/08/28 12:42:41;;;;;;;;;;;;;;;;;;5052940;28;19909;-72
2023/08/28 12:45:07;;;;;;;;;;;;;;;;;;5053518;28;19915;-72
2023/08/28 12:47:33;;;;;;;;;;;;;;;;;;5053821;28;19916;-71
2023/08/28 12:49:59;;;;;;;;;;;;;;;;;;5053385;28;19916;-72
2023/08/28 12:52:25;;;;;;;;;;;;;;;;;;5053482;28;19909;-71
2023/08/28 12:54:51;;;;;;;;;;;;;;;;;;5053475;28;19966;-72
2023/08/28 12:57:17;;;;;;;;;;;;;;;;;;5052848;28;19909;-72
2023/08/28 12:59:43;;;;;;;;;;;;;;;;;;5053149;28;19999;-71
2023/08/28 13:02:09;;;;;;;;;;;;;;;;;;5055191;28;19936;-71
2023/08/28 13:04:35;;;;;;;;;;;;;;;;;;5054504;28;19916;-71
2023/08/28 13:07:01;;;;;;;;;;;;;;;;;;5056911;28;19909;-71
2023/08/28 13:09:27;;;;;;;;;;;;;;;;;;5056524;28;20004;-72
2023/08/28 13:11:53;;;;;;;;;;;;;;;;;;5057479;28;19962;-72
2023/08/28 13:14:19;;;;;;;;;;;;;;;;;;5058031;28;19912;-71
2023/08/28 13:16:45;;;;;;;;;;;;;;;;;;5056567;28;19908;-71
2023/08/28 13:19:11;;;;;;;;;;;;;;;;;;5056504;28;20280;-71
2023/08/28 13:21:37;;;;;;;;;;;;;;;;;;5057532;28;20333;-71
2023/08/28 13:24:03;;;;;;;;;;;;;;;;;;5056448;28;19954;-71
2023/08/28 13:26:29;;;;;;;;;;;;;;;;;;5055624;28;19909;-71
2023/08/28 13:28:55;;;;;;;;;;;;;;;;;;5056886;28;19909;-71
2023/08/28 13:31:21;;;;;;;;;;;;;;;;;;5056657;28;20369;-71
2023/08/28 13:33:48;;;;;;;;;;;;;;;;;;5056625;28;19909;-71
2023/08/28 13:36:15;;;;;;;;;;;;;;;;;;5056954;28;19959;-71
2023/08/28 13:38:40;;;;;;;;;;;;;;;;;;5055492;28;19955;-72
2023/08/28 13:41:07;;;;;;;;;;;;;;;;;;5056884;28;19955;-72
2023/08/28 13:43:33;;;;;;;;;;;;;;;;;;5056727;28;19999;-72
2023/08/28 13:45:59;;;;;;;;;;;;;;;;;;5056471;28;19959;-73
2023/08/28 13:48:25;;;;;;;;;;;;;;;;;;5056789;28;20024;-71
2023/08/28 13:50:51;;;;;;;;;;;;;;;;;;5056459;28;20319;-72
2023/08/28 13:53:17;;;;;;;;;;;;;;;;;;5056208;28;20343;-71
2023/08/28 13:55:43;;;;;;;;;;;;;;;;;;5056879;28;20284;-72
2023/08/28 13:58:09;;;;;;;;;;;;;;;;;;5056530;28;20424;-72
2023/08/28 14:00:35;;;;;;;;;;;;;;;;;;5055817;28;19996;-72
2023/08/28 14:03:01;;;;;;;;;;;;;;;;;;5056084;28;19916;-72
2023/08/28 14:05:27;;;;;;;;;;;;;;;;;;5055949;28;19921;-73
2023/08/28 14:07:53;;;;;;;;;;;;;;;;;;5057216;28;19909;-71
2023/08/28 14:10:19;;;;;;;;;;;;;;;;;;5055823;28;19961;-72
2023/08/28 14:12:45;;;;;;;;;;;;;;;;;;5054413;28;20016;-72
2023/08/28 14:15:11;;;;;;;;;;;;;;;;;;5054818;28;19913;-72
2023/08/28 14:17:37;;;;;;;;;;;;;;;;;;5055559;28;20014;-72
2023/08/28 14:20:03;;;;;;;;;;;;;;;;;;5055264;28;20051;-72
2023/08/28 14:22:30;;;;;;;;;;;;;;;;;;5056284;28;20305;-72
2023/08/28 14:24:56;;;;;;;;;;;;;;;;;;5055715;28;20285;-72
2023/08/28 14:27:22;;;;;;;;;;;;;;;;;;5055574;28;20365;-72
2023/08/28 14:29:48;;;;;;;;;;;;;;;;;;5055521;28;19909;-72
2023/08/28 14:32:14;;;;;;;;;;;;;;;;;;5055470;28;19908;-73
2023/08/28 14:34:40;;;;;;;;;;;;;;;;;;5053798;28;19935;-72
2023/08/28 14:37:06;;;;;;;;;;;;;;;;;;5055325;28;19909;-73
2023/08/28 14:39:31;;;;;;;;;;;;;;;;;;5055257;28;20060;-73
2023/08/28 14:41:57;;;;;;;;;;;;;;;;;;5053646;28;19995;-72
2023/08/28 14:44:23;;;;;;;;;;;;;;;;;;5055186;28;19909;-72
2023/08/28 14:46:49;;;;;;;;;;;;;;;;;;5055052;28;19909;-72
2023/08/28 14:49:15;;;;;;;;;;;;;;;;;;5053377;28;19956;-72
2023/08/28 14:51:41;;;;;;;;;;;;;;;;;;5055183;28;19909;-72
2023/08/28 14:54:07;;;;;;;;;;;;;;;;;;5055103;28;19916;-72
2023/08/28 14:56:33;;;;;;;;;;;;;;;;;;5055166;28;19915;-72
2023/08/28 14:58:59;;;;;;;;;;;;;;;;;;5055585;28;20361;-72
2023/08/28 15:01:25;;;;;;;;;;;;;;;;;;5054687;28;19909;-72
2023/08/28 15:03:51;;;;;;;;;;;;;;;;;;5054574;28;19909;-72
2023/08/28 15:06:17;;;;;;;;;;;;;;;;;;5054755;28;19909;-71
2023/08/28 15:08:43;;;;;;;;;;;;;;;;;;5054702;28;19962;-72
2023/08/28 15:11:09;;;;;;;;;;;;;;;;;;5054408;28;19908;-72
2023/08/28 15:13:35;;;;;;;;;;;;;;;;;;5055091;28;19916;-72
2023/08/28 15:16:01;;;;;;;;;;;;;;;;;;5054669;28;19916;-71
2023/08/28 15:18:27;;;;;;;;;;;;;;;;;;5054503;28;19925;-71
2023/08/28 15:20:53;;;;;;;;;;;;;;;;;;5054477;28;19909;-71
2023/08/28 15:23:19;;;;;;;;;;;;;;;;;;5054117;28;19962;-71
2023/08/28 15:25:45;;;;;;;;;;;;;;;;;;5054357;28;19916;-72
2023/08/28 15:28:11;;;;;;;;;;;;;;;;;;5053639;28;19909;-72
2023/08/28 15:30:37;;;;;;;;;;;;;;;;;;5053871;28;19909;-72
2023/08/28 15:33:03;;;;;;;;;;;;;;;;;;5054224;28;19916;-72
2023/08/28 15:35:29;;;;;;;;;;;;;;;;;;5054249;28;19915;-72
2023/08/28 15:37:55;;;;;;;;;;;;;;;;;;5053795;28;20391;-72
2023/08/28 15:40:21;;;;;;;;;;;;;;;;;;5054320;28;19913;-72
2023/08/28 15:42:47;;;;;;;;;;;;;;;;;;5054721;28;19908;-72
2023/08/28 15:45:14;;;;;;;;;;;;;;;;;;5054086;28;19908;-72
2023/08/28 15:47:40;;;;;;;;;;;;;;;;;;5054068;28;19916;-73
2023/08/28 15:50:06;;;;;;;;;;;;;;;;;;5053045;28;19915;-72
2023/08/28 15:52:33;;;;;;;;;;;;;;;;;;5052395;28;19995;-72
2023/08/28 15:54:58;;;;;;;;;;;;;;;;;;5054293;28;19909;-72
2023/08/28 15:57:24;;;;;;;;;;;;;;;;;;5053904;28;19909;-71
2023/08/28 15:59:50;;;;;;;;;;;;;;;;;;5053703;28;19920;-72
2023/08/28 16:02:17;;;;;;;;;;;;;;;;;;5053694;28;19936;-71
2023/08/28 16:04:43;;;;;;;;;;;;;;;;;;5054228;28;19909;-71
2023/08/28 16:07:08;;;;;;;;;;;;;;;;;;5057173;28;20288;-72
2023/08/28 16:09:34;;;;;;;;;;;;;;;;;;5054708;28;19916;-72
2023/08/28 16:12:00;;;;;;;;;;;;;;;;;;5052495;28;19919;-72
2023/08/28 16:14:26;;;;;;;;;;;;;;;;;;5053450;28;19951;-72
2023/08/28 16:16:52;;;;;;;;;;;;;;;;;;5053559;28;19908;-72
2023/08/28 16:19:19;;;;;;;;;;;;;;;;;;5053249;28;19928;-72
2023/08/28 16:21:44;;;;;;;;;;;;;;;;;;5053657;28;19909;-72
2023/08/28 16:24:14;;;;;;;;;;;;;;;;;;5053982;28;20276;-72
2023/08/28 16:26:40;;;;;;;;;;;;;;;;;;5053411;28;19917;-73
2023/08/28 16:29:06;;;;;;;;;;;;;;;;;;5053712;28;19916;-72
2023/08/28 16:31:32;;;;;;;;;;;;;;;;;;5053722;28;19909;-72
2023/08/28 16:33:58;;;;;;;;;;;;;;;;;;5051989;28;19916;-73
2023/08/28 16:36:25;;;;;;;;;;;;;;;;;;5053801;28;20368;-72
2023/08/28 16:38:51;;;;;;;;;;;;;;;;;;5053649;28;19924;-71
2023/08/28 16:41:18;;;;;;;;;;;;;;;;;;5056711;28;19909;-71
2023/08/28 16:43:43;;;;;;;;;;;;;;;;;;5057767;28;20107;-71
2023/08/28 16:46:09;;;;;;;;;;;;;;;;;;5057529;28;20038;-71
2023/08/28 16:48:35;;;;;;;;;;;;;;;;;;5055664;28;19909;-71
2023/08/28 16:51:02;;;;;;;;;;;;;;;;;;5057292;28;19909;-71
2023/08/28 16:53:28;;;;;;;;;;;;;;;;;;5057321;28;19908;-71
2023/08/28 16:55:54;;;;;;;;;;;;;;;;;;5057091;28;19915;-71
2023/08/28 16:58:20;;;;;;;;;;;;;;;;;;5057559;28;19927;-71
2023/08/28 17:00:46;;;;;;;;;;;;;;;;;;5057938;28;20004;-71
2023/08/28 17:03:12;;;;;;;;;;;;;;;;;;5058798;28;19915;-71
2023/08/28 17:05:38;;;;;;;;;;;;;;;;;;5058194;28;19979;-71
2023/08/28 17:08:04;;;;;;;;;;;;;;;;;;5057757;28;19999;-72
2023/08/28 17:10:30;;;;;;;;;;;;;;;;;;5057942;28;19915;-71
2023/08/28 17:12:56;;;;;;;;;;;;;;;;;;5056835;28;19916;-71
2023/08/28 17:15:25;;;;;;;;;;;;;;;;;;5056925;28;19909;-71
2023/08/28 17:17:51;;;;;;;;;;;;;;;;;;5055223;28;20012;-72
2023/08/28 17:20:17;;;;;;;;;;;;;;;;;;5057023;28;20006;-70
2023/08/28 17:22:43;;;;;;;;;;;;;;;;;;5056519;28;19909;-72
2023/08/28 17:25:09;;;;;;;;;;;;;;;;;;5056752;28;19913;-72
2023/08/28 17:27:35;;;;;;;;;;;;;;;;;;5057023;28;20011;-71
2023/08/28 17:30:03;;;;;;;;;;;;;;;;;;5056212;28;19952;-72
2023/08/28 17:32:29;;;;;;;;;;;;;;;;;;5056550;28;19915;-72
2023/08/28 17:34:55;;;;;;;;;;;;;;;;;;5056527;28;20328;-73
2023/08/28 17:37:21;;;;;;;;;;;;;;;;;;5056066;28;20309;-72
2023/08/28 17:39:46;;;;;;;;;;;;;;;;;;5056618;28;19971;-72
2023/08/28 17:42:12;;;;;;;;;;;;;;;;;;5056498;28;19916;-72
2023/08/28 17:44:38;;;;;;;;;;;;;;;;;;5056272;28;19963;-72
2023/08/28 17:47:07;;;;;;;;;;;;;;;;;;5056390;28;19969;-72
2023/08/28 17:49:33;;;;;;;;;;;;;;;;;;5057107;28;19909;-72
2023/08/28 17:51:59;;;;;;;;;;;;;;;;;;5055471;28;20034;-72
2023/08/28 17:54:26;;;;;;;;;;;;;;;;;;5057415;28;19916;-72
2023/08/28 17:56:52;;;;;;;;;;;;;;;;;;5056079;28;19961;-72
2023/08/28 17:59:18;;;;;;;;;;;;;;;;;;5055557;28;20004;-72
2023/08/28 18:01:44;;;;;;;;;;;;;;;;;;5056072;28;19979;-72
2023/08/28 18:04:10;;;;;;;;;;;;;;;;;;5054627;28;20372;-72
2023/08/28 18:06:36;;;;;;;;;;;;;;;;;;5055550;28;20400;-72
2023/08/28 18:09:02;;;;;;;;;;;;;;;;;;5056104;28;19909;-73
2023/08/28 18:11:28;;;;;;;;;;;;;;;;;;5054665;28;20000;-72
2023/08/28 18:13:54;;;;;;;;;;;;;;;;;;5055372;28;19995;-72
2023/08/28 18:16:21;;;;;;;;;;;;;;;;;;5055908;28;19913;-72
2023/08/28 18:18:47;;;;;;;;;;;;;;;;;;5055548;28;20336;-72
2023/08/28 18:21:13;;;;;;;;;;;;;;;;;;5055270;28;19908;-73
2023/08/28 18:23:39;;;;;;;;;;;;;;;;;;5055686;28;19963;-72
2023/08/28 18:26:05;;;;;;;;;;;;;;;;;;5055382;28;19912;-72
2023/08/28 18:28:32;;;;;;;;;;;;;;;;;;5055593;28;19909;-73
2023/08/28 18:30:59;;;;;;;;;;;;;;;;;;5055596;28;20365;-73